sensor_id;sensor_type;location;lat;lon;timestamp;P1;durP1;ratioP1;P2;durP2;ratioP2
16272;SDS011;8244;50.044;9.006;2024-01-11T00:02:27;52.80;;;23.83;;
16272;SDS011;8244;50.044;9.006;2024-01-11T00:07:30;48.10;;;22.47;;
16272;SDS011;8244;50.044;9.006;2024-01-11T00:12:31;49.83;;;22.97;;
16272;SDS011;8244;50.044;9.006;2024-01-11T00:17:33;54.03;;;24.00;;
16272;SDS011;8244;50.044;9.006;2024-01-11T00:22:36;53.97;;;24.87;;
16272;SDS011;8244;50.044;9.006;2024-01-11T00:27:38;52.87;;;21.73;;
16272;SDS011;8244;50.044;9.006;2024-01-11T00:32:39;52.27;;;23.37;;
16272;SDS011;8244;50.044;9.006;2024-01-11T00:37:42;53.03;;;22.40;;
16272;SDS011;8244;50.044;9.006;2024-01-11T00:42:44;50.67;;;22.77;;
16272;SDS011;8244;50.044;9.006;2024-01-11T00:47:46;54.70;;;23.97;;
16272;SDS011;8244;50.044;9.006;2024-01-11T00:52:49;55.13;;;23.50;;
16272;SDS011;8244;50.044;9.006;2024-01-11T00:57:50;50.43;;;21.40;;
16272;SDS011;8244;50.044;9.006;2024-01-11T01:02:52;48.90;;;22.43;;
16272;SDS011;8244;50.044;9.006;2024-01-11T01:07:56;51.90;;;23.83;;
16272;SDS011;8244;50.044;9.006;2024-01-11T01:12:57;50.73;;;22.73;;
16272;SDS011;8244;50.044;9.006;2024-01-11T01:17:59;48.27;;;22.77;;
16272;SDS011;8244;50.044;9.006;2024-01-11T01:23:02;49.43;;;23.00;;
16272;SDS011;8244;50.044;9.006;2024-01-11T01:28:04;54.47;;;23.60;;
16272;SDS011;8244;50.044;9.006;2024-01-11T01:33:06;53.37;;;23.77;;
16272;SDS011;8244;50.044;9.006;2024-01-11T01:38:10;51.73;;;23.47;;
16272;SDS011;8244;50.044;9.006;2024-01-11T01:43:11;57.87;;;23.00;;
16272;SDS011;8244;50.044;9.006;2024-01-11T01:48:13;52.60;;;22.67;;
16272;SDS011;8244;50.044;9.006;2024-01-11T01:53:17;54.10;;;22.33;;
16272;SDS011;8244;50.044;9.006;2024-01-11T01:58:19;55.87;;;21.37;;
16272;SDS011;8244;50.044;9.006;2024-01-11T02:03:23;57.70;;;23.63;;
16272;SDS011;8244;50.044;9.006;2024-01-11T02:08:28;49.93;;;22.27;;
16272;SDS011;8244;50.044;9.006;2024-01-11T02:13:31;55.63;;;23.40;;
16272;SDS011;8244;50.044;9.006;2024-01-11T02:18:33;53.07;;;23.33;;
16272;SDS011;8244;50.044;9.006;2024-01-11T02:23:39;53.33;;;23.97;;
16272;SDS011;8244;50.044;9.006;2024-01-11T02:28:46;55.13;;;23.17;;
16272;SDS011;8244;50.044;9.006;2024-01-11T02:33:48;57.60;;;23.97;;
16272;SDS011;8244;50.044;9.006;2024-01-11T02:38:50;52.87;;;23.03;;
16272;SDS011;8244;50.044;9.006;2024-01-11T02:43:55;52.90;;;23.23;;
16272;SDS011;8244;50.044;9.006;2024-01-11T02:48:57;52.23;;;23.60;;
16272;SDS011;8244;50.044;9.006;2024-01-11T02:53:59;47.33;;;20.57;;
16272;SDS011;8244;50.044;9.006;2024-01-11T02:59:03;52.07;;;23.07;;
16272;SDS011;8244;50.044;9.006;2024-01-11T03:04:05;50.03;;;21.70;;
16272;SDS011;8244;50.044;9.006;2024-01-11T03:09:06;50.27;;;22.17;;
16272;SDS011;8244;50.044;9.006;2024-01-11T03:14:09;46.60;;;22.07;;
16272;SDS011;8244;50.044;9.006;2024-01-11T03:19:11;51.77;;;23.07;;
16272;SDS011;8244;50.044;9.006;2024-01-11T03:24:13;53.73;;;23.47;;
16272;SDS011;8244;50.044;9.006;2024-01-11T03:29:16;52.40;;;21.97;;
16272;SDS011;8244;50.044;9.006;2024-01-11T03:34:17;51.10;;;22.10;;
16272;SDS011;8244;50.044;9.006;2024-01-11T03:39:19;53.33;;;23.80;;
16272;SDS011;8244;50.044;9.006;2024-01-11T03:44:22;51.80;;;22.97;;
16272;SDS011;8244;50.044;9.006;2024-01-11T03:49:24;58.30;;;24.00;;
16272;SDS011;8244;50.044;9.006;2024-01-11T03:54:25;50.03;;;23.00;;
16272;SDS011;8244;50.044;9.006;2024-01-11T03:59:28;53.03;;;22.33;;
16272;SDS011;8244;50.044;9.006;2024-01-11T04:04:30;50.93;;;22.23;;
16272;SDS011;8244;50.044;9.006;2024-01-11T04:09:31;50.40;;;21.27;;
16272;SDS011;8244;50.044;9.006;2024-01-11T04:14:37;54.80;;;22.30;;
16272;SDS011;8244;50.044;9.006;2024-01-11T04:19:39;47.37;;;21.73;;
16272;SDS011;8244;50.044;9.006;2024-01-11T04:24:43;55.93;;;23.77;;
16272;SDS011;8244;50.044;9.006;2024-01-11T04:29:46;60.30;;;23.63;;
16272;SDS011;8244;50.044;9.006;2024-01-11T04:34:48;56.97;;;24.30;;
16272;SDS011;8244;50.044;9.006;2024-01-11T04:39:50;61.63;;;25.83;;
16272;SDS011;8244;50.044;9.006;2024-01-11T04:44:52;61.23;;;25.60;;
16272;SDS011;8244;50.044;9.006;2024-01-11T04:49:54;59.43;;;25.10;;
16272;SDS011;8244;50.044;9.006;2024-01-11T04:54:56;63.40;;;24.73;;
16272;SDS011;8244;50.044;9.006;2024-01-11T04:59:59;55.47;;;24.80;;
16272;SDS011;8244;50.044;9.006;2024-01-11T05:05:00;66.70;;;26.17;;
16272;SDS011;8244;50.044;9.006;2024-01-11T05:10:02;61.30;;;24.83;;
16272;SDS011;8244;50.044;9.006;2024-01-11T05:15:06;64.03;;;26.07;;
16272;SDS011;8244;50.044;9.006;2024-01-11T05:20:09;56.80;;;24.20;;
16272;SDS011;8244;50.044;9.006;2024-01-11T05:25:11;64.37;;;25.60;;
16272;SDS011;8244;50.044;9.006;2024-01-11T05:30:15;67.17;;;26.07;;
16272;SDS011;8244;50.044;9.006;2024-01-11T05:35:17;61.13;;;25.37;;
16272;SDS011;8244;50.044;9.006;2024-01-11T05:40:18;56.50;;;25.33;;
16272;SDS011;8244;50.044;9.006;2024-01-11T05:45:21;57.03;;;25.67;;
16272;SDS011;8244;50.044;9.006;2024-01-11T05:50:23;59.33;;;26.00;;
16272;SDS011;8244;50.044;9.006;2024-01-11T05:55:25;62.73;;;26.13;;
16272;SDS011;8244;50.044;9.006;2024-01-11T06:00:28;65.60;;;26.00;;
16272;SDS011;8244;50.044;9.006;2024-01-11T06:05:29;71.80;;;27.70;;
16272;SDS011;8244;50.044;9.006;2024-01-11T06:10:31;69.40;;;27.00;;
16272;SDS011;8244;50.044;9.006;2024-01-11T06:15:34;62.87;;;26.27;;
16272;SDS011;8244;50.044;9.006;2024-01-11T06:20:36;62.03;;;25.80;;
16272;SDS011;8244;50.044;9.006;2024-01-11T06:25:37;64.70;;;27.63;;
16272;SDS011;8244;50.044;9.006;2024-01-11T06:30:40;62.80;;;26.93;;
16272;SDS011;8244;50.044;9.006;2024-01-11T06:35:43;65.23;;;28.67;;
16272;SDS011;8244;50.044;9.006;2024-01-11T06:40:45;68.43;;;26.87;;
16272;SDS011;8244;50.044;9.006;2024-01-11T06:45:49;70.93;;;27.77;;
16272;SDS011;8244;50.044;9.006;2024-01-11T06:50:50;65.60;;;27.47;;
16272;SDS011;8244;50.044;9.006;2024-01-11T06:55:52;71.83;;;28.37;;
16272;SDS011;8244;50.044;9.006;2024-01-11T07:00:55;65.33;;;28.23;;
16272;SDS011;8244;50.044;9.006;2024-01-11T07:05:57;70.83;;;28.60;;
16272;SDS011;8244;50.044;9.006;2024-01-11T07:10:59;64.70;;;26.93;;
16272;SDS011;8244;50.044;9.006;2024-01-11T07:16:03;69.90;;;28.80;;
16272;SDS011;8244;50.044;9.006;2024-01-11T07:21:06;71.13;;;28.30;;
16272;SDS011;8244;50.044;9.006;2024-01-11T07:26:07;72.87;;;28.13;;
16272;SDS011;8244;50.044;9.006;2024-01-11T07:31:11;72.53;;;28.43;;
16272;SDS011;8244;50.044;9.006;2024-01-11T07:36:13;67.33;;;27.37;;
16272;SDS011;8244;50.044;9.006;2024-01-11T07:41:14;67.47;;;27.90;;
16272;SDS011;8244;50.044;9.006;2024-01-11T07:46:17;75.57;;;28.37;;
16272;SDS011;8244;50.044;9.006;2024-01-11T07:51:19;64.73;;;25.73;;
16272;SDS011;8244;50.044;9.006;2024-01-11T07:56:21;72.03;;;29.10;;
16272;SDS011;8244;50.044;9.006;2024-01-11T08:01:24;69.97;;;28.47;;
16272;SDS011;8244;50.044;9.006;2024-01-11T08:06:26;71.57;;;29.87;;
16272;SDS011;8244;50.044;9.006;2024-01-11T08:11:27;76.13;;;32.20;;
16272;SDS011;8244;50.044;9.006;2024-01-11T08:16:30;77.93;;;31.93;;
16272;SDS011;8244;50.044;9.006;2024-01-11T08:21:32;69.77;;;30.47;;
16272;SDS011;8244;50.044;9.006;2024-01-11T08:26:34;70.13;;;29.70;;
16272;SDS011;8244;50.044;9.006;2024-01-11T08:31:37;75.90;;;30.47;;
16272;SDS011;8244;50.044;9.006;2024-01-11T08:36:39;72.67;;;31.73;;
16272;SDS011;8244;50.044;9.006;2024-01-11T08:41:40;72.80;;;30.40;;
16272;SDS011;8244;50.044;9.006;2024-01-11T08:46:43;70.07;;;30.33;;
16272;SDS011;8244;50.044;9.006;2024-01-11T08:51:45;70.63;;;31.43;;
16272;SDS011;8244;50.044;9.006;2024-01-11T08:56:50;78.00;;;31.17;;
16272;SDS011;8244;50.044;9.006;2024-01-11T09:01:54;78.50;;;32.07;;
16272;SDS011;8244;50.044;9.006;2024-01-11T09:06:55;77.47;;;31.60;;
16272;SDS011;8244;50.044;9.006;2024-01-11T09:11:57;80.73;;;31.87;;
16272;SDS011;8244;50.044;9.006;2024-01-11T09:17:00;68.27;;;30.07;;
16272;SDS011;8244;50.044;9.006;2024-01-11T09:22:02;72.63;;;30.83;;
16272;SDS011;8244;50.044;9.006;2024-01-11T09:27:04;71.43;;;30.57;;
16272;SDS011;8244;50.044;9.006;2024-01-11T09:32:07;76.07;;;31.00;;
16272;SDS011;8244;50.044;9.006;2024-01-11T09:37:08;78.17;;;31.47;;
16272;SDS011;8244;50.044;9.006;2024-01-11T09:42:10;75.13;;;33.23;;
16272;SDS011;8244;50.044;9.006;2024-01-11T09:47:14;76.80;;;32.40;;
16272;SDS011;8244;50.044;9.006;2024-01-11T09:52:17;78.57;;;33.07;;
16272;SDS011;8244;50.044;9.006;2024-01-11T09:57:23;70.33;;;31.30;;
16272;SDS011;8244;50.044;9.006;2024-01-11T10:02:29;77.97;;;33.20;;
16272;SDS011;8244;50.044;9.006;2024-01-11T10:07:30;75.43;;;33.73;;
16272;SDS011;8244;50.044;9.006;2024-01-11T10:12:35;79.40;;;33.40;;
16272;SDS011;8244;50.044;9.006;2024-01-11T10:17:39;73.07;;;32.40;;
16272;SDS011;8244;50.044;9.006;2024-01-11T10:22:42;74.37;;;31.93;;
16272;SDS011;8244;50.044;9.006;2024-01-11T10:27:46;73.13;;;31.77;;
16272;SDS011;8244;50.044;9.006;2024-01-11T10:32:49;72.33;;;32.17;;
16272;SDS011;8244;50.044;9.006;2024-01-11T10:37:51;74.53;;;32.53;;
16272;SDS011;8244;50.044;9.006;2024-01-11T10:42:54;66.40;;;31.90;;
16272;SDS011;8244;50.044;9.006;2024-01-11T10:48:03;69.53;;;31.80;;
16272;SDS011;8244;50.044;9.006;2024-01-11T10:53:11;67.23;;;31.27;;
16272;SDS011;8244;50.044;9.006;2024-01-11T10:58:25;67.87;;;31.67;;
16272;SDS011;8244;50.044;9.006;2024-01-11T11:03:29;64.17;;;29.97;;
16272;SDS011;8244;50.044;9.006;2024-01-11T11:08:33;66.07;;;30.97;;
16272;SDS011;8244;50.044;9.006;2024-01-11T11:13:36;68.50;;;32.00;;
16272;SDS011;8244;50.044;9.006;2024-01-11T11:18:41;62.63;;;30.00;;
16272;SDS011;8244;50.044;9.006;2024-01-11T11:23:42;65.57;;;30.70;;
16272;SDS011;8244;50.044;9.006;2024-01-11T11:28:46;66.13;;;31.77;;
16272;SDS011;8244;50.044;9.006;2024-01-11T11:33:50;67.13;;;31.63;;
16272;SDS011;8244;50.044;9.006;2024-01-11T11:38:53;57.43;;;30.30;;
16272;SDS011;8244;50.044;9.006;2024-01-11T11:44:02;61.60;;;31.50;;
16272;SDS011;8244;50.044;9.006;2024-01-11T11:49:07;64.93;;;32.00;;
16272;SDS011;8244;50.044;9.006;2024-01-11T11:54:10;64.33;;;32.03;;
16272;SDS011;8244;50.044;9.006;2024-01-11T11:59:15;58.50;;;30.53;;
16272;SDS011;8244;50.044;9.006;2024-01-11T12:04:19;58.00;;;29.73;;
16272;SDS011;8244;50.044;9.006;2024-01-11T12:09:21;60.00;;;30.07;;
16272;SDS011;8244;50.044;9.006;2024-01-11T12:14:23;54.40;;;29.53;;
16272;SDS011;8244;50.044;9.006;2024-01-11T12:19:28;57.20;;;29.53;;
16272;SDS011;8244;50.044;9.006;2024-01-11T12:24:30;58.37;;;29.50;;
16272;SDS011;8244;50.044;9.006;2024-01-11T12:29:33;57.13;;;29.00;;
16272;SDS011;8244;50.044;9.006;2024-01-11T12:34:36;57.77;;;29.53;;
16272;SDS011;8244;50.044;9.006;2024-01-11T12:39:38;62.13;;;30.10;;
16272;SDS011;8244;50.044;9.006;2024-01-11T12:44:40;56.87;;;29.47;;
16272;SDS011;8244;50.044;9.006;2024-01-11T12:49:44;57.00;;;29.57;;
16272;SDS011;8244;50.044;9.006;2024-01-11T12:54:46;57.33;;;29.97;;
16272;SDS011;8244;50.044;9.006;2024-01-11T12:59:48;60.63;;;29.27;;
16272;SDS011;8244;50.044;9.006;2024-01-11T13:04:51;59.47;;;28.90;;
16272;SDS011;8244;50.044;9.006;2024-01-11T13:09:53;56.53;;;29.17;;
16272;SDS011;8244;50.044;9.006;2024-01-11T13:14:54;55.83;;;29.80;;
16272;SDS011;8244;50.044;9.006;2024-01-11T13:19:57;55.10;;;28.97;;
16272;SDS011;8244;50.044;9.006;2024-01-11T13:24:59;52.20;;;28.07;;
16272;SDS011;8244;50.044;9.006;2024-01-11T13:30:01;55.57;;;28.57;;
16272;SDS011;8244;50.044;9.006;2024-01-11T13:35:04;51.73;;;27.90;;
16272;SDS011;8244;50.044;9.006;2024-01-11T13:40:07;52.77;;;26.33;;
16272;SDS011;8244;50.044;9.006;2024-01-11T13:45:09;53.00;;;27.07;;
16272;SDS011;8244;50.044;9.006;2024-01-11T13:50:14;52.47;;;27.30;;
16272;SDS011;8244;50.044;9.006;2024-01-11T13:55:16;50.67;;;26.43;;
16272;SDS011;8244;50.044;9.006;2024-01-11T14:00:18;54.13;;;27.37;;
16272;SDS011;8244;50.044;9.006;2024-01-11T14:05:21;51.33;;;26.90;;
16272;SDS011;8244;50.044;9.006;2024-01-11T14:10:23;50.17;;;25.57;;
16272;SDS011;8244;50.044;9.006;2024-01-11T14:15:25;48.27;;;25.53;;
16272;SDS011;8244;50.044;9.006;2024-01-11T14:20:29;50.93;;;26.63;;
16272;SDS011;8244;50.044;9.006;2024-01-11T14:25:32;51.53;;;26.03;;
16272;SDS011;8244;50.044;9.006;2024-01-11T14:30:33;47.53;;;24.97;;
16272;SDS011;8244;50.044;9.006;2024-01-11T14:35:36;45.93;;;24.17;;
16272;SDS011;8244;50.044;9.006;2024-01-11T14:40:38;49.40;;;23.80;;
16272;SDS011;8244;50.044;9.006;2024-01-11T14:45:41;45.87;;;24.77;;
16272;SDS011;8244;50.044;9.006;2024-01-11T14:50:44;46.17;;;24.93;;
16272;SDS011;8244;50.044;9.006;2024-01-11T14:55:46;48.73;;;24.77;;
16272;SDS011;8244;50.044;9.006;2024-01-11T15:00:48;46.47;;;23.73;;
16272;SDS011;8244;50.044;9.006;2024-01-11T15:05:51;47.77;;;23.37;;
16272;SDS011;8244;50.044;9.006;2024-01-11T15:10:53;50.43;;;25.00;;
16272;SDS011;8244;50.044;9.006;2024-01-11T15:15:55;47.03;;;24.10;;
16272;SDS011;8244;50.044;9.006;2024-01-11T15:20:58;44.87;;;23.40;;
16272;SDS011;8244;50.044;9.006;2024-01-11T15:26:00;42.83;;;22.73;;
16272;SDS011;8244;50.044;9.006;2024-01-11T15:31:02;49.70;;;25.07;;
16272;SDS011;8244;50.044;9.006;2024-01-11T15:36:05;48.03;;;24.57;;
16272;SDS011;8244;50.044;9.006;2024-01-11T15:41:07;46.00;;;24.13;;
16272;SDS011;8244;50.044;9.006;2024-01-11T15:46:09;47.40;;;24.33;;
16272;SDS011;8244;50.044;9.006;2024-01-11T15:51:12;49.13;;;24.67;;
16272;SDS011;8244;50.044;9.006;2024-01-11T15:56:14;51.10;;;25.87;;
16272;SDS011;8244;50.044;9.006;2024-01-11T16:01:16;46.57;;;24.30;;
16272;SDS011;8244;50.044;9.006;2024-01-11T16:06:19;49.43;;;24.23;;
16272;SDS011;8244;50.044;9.006;2024-01-11T16:11:20;49.07;;;25.40;;
16272;SDS011;8244;50.044;9.006;2024-01-11T16:16:22;55.43;;;26.23;;
16272;SDS011;8244;50.044;9.006;2024-01-11T16:21:25;55.53;;;26.03;;
16272;SDS011;8244;50.044;9.006;2024-01-11T16:26:28;50.20;;;24.83;;
16272;SDS011;8244;50.044;9.006;2024-01-11T16:31:31;52.73;;;27.17;;
16272;SDS011;8244;50.044;9.006;2024-01-11T16:36:36;59.17;;;27.47;;
16272;SDS011;8244;50.044;9.006;2024-01-11T16:41:40;67.37;;;30.33;;
16272;SDS011;8244;50.044;9.006;2024-01-11T16:46:42;94.57;;;37.07;;
16272;SDS011;8244;50.044;9.006;2024-01-11T16:51:45;95.30;;;39.77;;
16272;SDS011;8244;50.044;9.006;2024-01-11T16:56:48;111.93;;;44.90;;
16272;SDS011;8244;50.044;9.006;2024-01-11T17:01:51;82.23;;;35.63;;
16272;SDS011;8244;50.044;9.006;2024-01-11T17:06:54;60.13;;;30.27;;
16272;SDS011;8244;50.044;9.006;2024-01-11T17:11:56;61.73;;;30.27;;
16272;SDS011;8244;50.044;9.006;2024-01-11T17:16:57;67.47;;;31.90;;
16272;SDS011;8244;50.044;9.006;2024-01-11T17:22:03;68.87;;;34.47;;
16272;SDS011;8244;50.044;9.006;2024-01-11T17:27:05;77.13;;;37.70;;
16272;SDS011;8244;50.044;9.006;2024-01-11T17:32:08;75.93;;;35.63;;
16272;SDS011;8244;50.044;9.006;2024-01-11T17:37:11;79.33;;;38.13;;
16272;SDS011;8244;50.044;9.006;2024-01-11T17:42:12;78.57;;;38.80;;
16272;SDS011;8244;50.044;9.006;2024-01-11T17:47:14;72.90;;;35.47;;
16272;SDS011;8244;50.044;9.006;2024-01-11T17:52:17;73.53;;;36.73;;
16272;SDS011;8244;50.044;9.006;2024-01-11T17:57:19;74.00;;;35.97;;
16272;SDS011;8244;50.044;9.006;2024-01-11T18:02:22;70.17;;;35.67;;
16272;SDS011;8244;50.044;9.006;2024-01-11T18:07:25;67.53;;;33.37;;
16272;SDS011;8244;50.044;9.006;2024-01-11T18:12:26;63.57;;;33.13;;
16272;SDS011;8244;50.044;9.006;2024-01-11T18:17:28;73.73;;;34.17;;
16272;SDS011;8244;50.044;9.006;2024-01-11T18:22:31;80.87;;;39.07;;
16272;SDS011;8244;50.044;9.006;2024-01-11T18:27:33;80.87;;;39.73;;
16272;SDS011;8244;50.044;9.006;2024-01-11T18:32:34;77.63;;;35.10;;
16272;SDS011;8244;50.044;9.006;2024-01-11T18:37:37;63.67;;;33.93;;
16272;SDS011;8244;50.044;9.006;2024-01-11T18:42:40;70.00;;;33.47;;
16272;SDS011;8244;50.044;9.006;2024-01-11T18:47:41;74.67;;;34.50;;
16272;SDS011;8244;50.044;9.006;2024-01-11T18:52:44;95.93;;;40.87;;
16272;SDS011;8244;50.044;9.006;2024-01-11T18:57:46;95.03;;;36.53;;
16272;SDS011;8244;50.044;9.006;2024-01-11T19:02:48;92.57;;;38.27;;
16272;SDS011;8244;50.044;9.006;2024-01-11T19:07:51;90.90;;;38.50;;
16272;SDS011;8244;50.044;9.006;2024-01-11T19:12:53;92.80;;;37.07;;
16272;SDS011;8244;50.044;9.006;2024-01-11T19:17:55;90.07;;;38.87;;
16272;SDS011;8244;50.044;9.006;2024-01-11T19:22:58;91.27;;;39.27;;
16272;SDS011;8244;50.044;9.006;2024-01-11T19:28:00;75.73;;;34.40;;
16272;SDS011;8244;50.044;9.006;2024-01-11T19:33:02;59.03;;;27.80;;
16272;SDS011;8244;50.044;9.006;2024-01-11T19:38:07;65.27;;;30.20;;
16272;SDS011;8244;50.044;9.006;2024-01-11T19:43:08;54.23;;;25.47;;
16272;SDS011;8244;50.044;9.006;2024-01-11T19:48:10;57.97;;;28.07;;
16272;SDS011;8244;50.044;9.006;2024-01-11T19:53:13;63.60;;;30.00;;
16272;SDS011;8244;50.044;9.006;2024-01-11T19:58:15;66.13;;;30.87;;
16272;SDS011;8244;50.044;9.006;2024-01-11T20:03:17;66.63;;;31.23;;
16272;SDS011;8244;50.044;9.006;2024-01-11T20:08:20;72.10;;;33.03;;
16272;SDS011;8244;50.044;9.006;2024-01-11T20:13:24;80.43;;;37.60;;
16272;SDS011;8244;50.044;9.006;2024-01-11T20:18:27;81.30;;;35.83;;
16272;SDS011;8244;50.044;9.006;2024-01-11T20:23:30;75.33;;;34.17;;
16272;SDS011;8244;50.044;9.006;2024-01-11T20:28:32;76.57;;;34.33;;
16272;SDS011;8244;50.044;9.006;2024-01-11T20:33:34;78.53;;;36.00;;
16272;SDS011;8244;50.044;9.006;2024-01-11T20:38:37;67.33;;;32.80;;
16272;SDS011;8244;50.044;9.006;2024-01-11T20:43:39;68.60;;;32.87;;
16272;SDS011;8244;50.044;9.006;2024-01-11T20:48:41;64.50;;;31.07;;
16272;SDS011;8244;50.044;9.006;2024-01-11T20:53:46;69.87;;;30.70;;
16272;SDS011;8244;50.044;9.006;2024-01-11T20:58:48;76.30;;;33.83;;
16272;SDS011;8244;50.044;9.006;2024-01-11T21:03:50;71.33;;;33.30;;
16272;SDS011;8244;50.044;9.006;2024-01-11T21:08:57;74.47;;;34.93;;
16272;SDS011;8244;50.044;9.006;2024-01-11T21:13:59;77.07;;;34.60;;
16272;SDS011;8244;50.044;9.006;2024-01-11T21:19:01;74.27;;;32.97;;
16272;SDS011;8244;50.044;9.006;2024-01-11T21:24:06;69.80;;;33.93;;
16272;SDS011;8244;50.044;9.006;2024-01-11T21:29:09;75.20;;;33.27;;
16272;SDS011;8244;50.044;9.006;2024-01-11T21:34:11;80.03;;;35.33;;
16272;SDS011;8244;50.044;9.006;2024-01-11T21:39:14;115.33;;;42.87;;
16272;SDS011;8244;50.044;9.006;2024-01-11T21:44:15;109.13;;;40.10;;
16272;SDS011;8244;50.044;9.006;2024-01-11T21:49:17;97.93;;;37.50;;
16272;SDS011;8244;50.044;9.006;2024-01-11T21:54:20;71.87;;;32.20;;
16272;SDS011;8244;50.044;9.006;2024-01-11T21:59:23;64.17;;;30.57;;
16272;SDS011;8244;50.044;9.006;2024-01-11T22:04:24;63.60;;;30.80;;
16272;SDS011;8244;50.044;9.006;2024-01-11T22:09:27;61.80;;;29.20;;
16272;SDS011;8244;50.044;9.006;2024-01-11T22:14:29;61.60;;;28.43;;
16272;SDS011;8244;50.044;9.006;2024-01-11T22:19:30;61.67;;;29.17;;
16272;SDS011;8244;50.044;9.006;2024-01-11T22:24:33;54.17;;;26.27;;
16272;SDS011;8244;50.044;9.006;2024-01-11T22:29:35;59.43;;;27.23;;
16272;SDS011;8244;50.044;9.006;2024-01-11T22:34:37;56.67;;;25.77;;
16272;SDS011;8244;50.044;9.006;2024-01-11T22:39:40;56.77;;;26.53;;
16272;SDS011;8244;50.044;9.006;2024-01-11T22:44:42;49.53;;;22.87;;
16272;SDS011;8244;50.044;9.006;2024-01-11T22:49:44;58.00;;;26.80;;
16272;SDS011;8244;50.044;9.006;2024-01-11T22:54:47;53.93;;;25.47;;
16272;SDS011;8244;50.044;9.006;2024-01-11T22:59:49;49.17;;;24.70;;
16272;SDS011;8244;50.044;9.006;2024-01-11T23:04:51;52.03;;;24.90;;
16272;SDS011;8244;50.044;9.006;2024-01-11T23:09:53;47.87;;;24.90;;
16272;SDS011;8244;50.044;9.006;2024-01-11T23:14:55;53.57;;;25.37;;
16272;SDS011;8244;50.044;9.006;2024-01-11T23:19:57;51.03;;;24.73;;
16272;SDS011;8244;50.044;9.006;2024-01-11T23:25:00;55.43;;;26.43;;
16272;SDS011;8244;50.044;9.006;2024-01-11T23:30:02;53.47;;;26.97;;
16272;SDS011;8244;50.044;9.006;2024-01-11T23:35:04;48.60;;;23.87;;
16272;SDS011;8244;50.044;9.006;2024-01-11T23:40:08;49.80;;;24.40;;
16272;SDS011;8244;50.044;9.006;2024-01-11T23:45:10;51.50;;;25.17;;
16272;SDS011;8244;50.044;9.006;2024-01-11T23:50:12;48.50;;;23.00;;
16272;SDS011;8244;50.044;9.006;2024-01-11T23:55:15;38.07;;;19.27;;
